Time;durP1;ratioP1;P1;durP2;ratioP2;P2;SDS_P1;SDS_P2;PMS_P1;PMS_P2;Temp;Humidity;BMP_temperature;BMP_pressure;BME280_temperature;BME280_humidity;BME280_pressure;Samples;Min_cycle;Max_cycle;Signal;HPM_P1;HPM_P2
2022/07/27 00:01:13;;;;;;;23.85;13.88;;;15.30;99.90;;;;;;5049157;28;20017;-58
2022/07/27 00:03:39;;;;;;;21.80;13.07;;;15.30;99.90;;;;;;5048702;28;20053;-59
2022/07/27 00:06:05;;;;;;;26.02;13.55;;;15.30;99.90;;;;;;5049057;28;20662;-57
2022/07/27 00:08:32;;;;;;;25.43;13.70;;;15.30;99.90;;;;;;5048994;28;20199;-57
2022/07/27 00:10:57;;;;;;;20.73;12.73;;;15.30;99.90;;;;;;5030895;28;20096;-57
2022/07/27 00:13:24;;;;;;;26.05;12.98;;;15.30;99.90;;;;;;5049555;28;20764;-59
2022/07/27 00:15:49;;;;;;;24.92;12.98;;;15.10;99.90;;;;;;5030259;28;20024;-58
2022/07/27 00:18:15;;;;;;;19.23;12.00;;;15.20;99.90;;;;;;5048827;28;20078;-59
2022/07/27 00:20:41;;;;;;;20.23;12.63;;;15.10;99.90;;;;;;5032000;28;20100;-58
2022/07/27 00:23:08;;;;;;;19.27;12.38;;;15.10;99.90;;;;;;5031773;28;20029;-58
2022/07/27 00:25:34;;;;;;;;;;;15.10;99.90;;;;;;5050126;28;20029;-58
2022/07/27 00:28:00;;;;;;;22.25;10.13;;;15.00;99.90;;;;;;5050133;28;19915;-59
2022/07/27 00:30:26;;;;;;;14.18;8.82;;;15.10;99.90;;;;;;5049858;28;20056;-58
2022/07/27 00:32:52;;;;;;;14.98;9.63;;;15.10;99.90;;;;;;5049679;28;20021;-58
2022/07/27 00:35:18;;;;;;;20.67;10.80;;;15.00;99.90;;;;;;5048276;28;20027;-58
2022/07/27 00:37:43;;;;;;;21.95;12.35;;;15.00;99.90;;;;;;5050250;28;20029;-59
2022/07/27 00:40:10;;;;;;;19.77;11.50;;;15.00;99.90;;;;;;5049655;28;20029;-59
2022/07/27 00:42:37;;;;;;;16.83;9.40;;;14.90;99.90;;;;;;5050243;28;20439;-58
2022/07/27 00:45:04;;;;;;;15.43;8.80;;;14.80;99.90;;;;;;5050131;28;20033;-59
2022/07/27 00:47:30;;;;;;;19.67;10.68;;;14.90;99.90;;;;;;5050293;28;20025;-58
2022/07/27 00:49:57;;;;;;;17.00;9.25;;;15.00;99.90;;;;;;5049910;28;20119;-58
2022/07/27 00:52:23;;;;;;;18.65;9.77;;;15.00;99.90;;;;;;5050185;28;20025;-59
2022/07/27 00:54:50;;;;;;;18.58;10.50;;;14.90;99.90;;;;;;5048017;28;20602;-59
2022/07/27 00:57:16;;;;;;;18.65;9.77;;;14.90;99.90;;;;;;5050115;28;20517;-59
2022/07/27 00:59:42;;;;;;;20.75;11.13;;;14.80;99.90;;;;;;5049643;28;20106;-58
2022/07/27 01:02:09;;;;;;;17.98;10.85;;;14.80;99.90;;;;;;5050090;28;20036;-59
2022/07/27 01:04:35;;;;;;;15.77;9.63;;;14.80;99.90;;;;;;5049767;28;20102;-59
2022/07/27 01:07:04;;;;;;;14.07;9.43;;;14.70;99.90;;;;;;5049892;28;20055;-59
2022/07/27 01:12:19;;;;;;;17.85;10.52;;;14.70;99.90;;;;;;5049566;28;20036;-59
2022/07/27 01:14:47;;;;;;;16.77;9.77;;;14.70;99.90;;;;;;5048957;28;20036;-58
2022/07/27 01:17:13;;;;;;;14.00;9.68;;;14.60;99.90;;;;;;5048899;28;20490;-59
2022/07/27 01:19:39;;;;;;;20.40;10.80;;;14.70;99.90;;;;;;5048568;28;20044;-59
2022/07/27 01:22:05;;;;;;;19.65;9.68;;;14.60;99.90;;;;;;5049012;28;20049;-58
2022/07/27 01:24:31;;;;;;;16.87;10.17;;;14.50;99.90;;;;;;5049028;28;20112;-58
2022/07/27 01:27:00;;;;;;;15.73;9.50;;;14.50;99.90;;;;;;5049036;28;20260;-58
2022/07/27 01:29:26;;;;;;;15.95;10.70;;;14.60;99.90;;;;;;5048646;28;20028;-58
2022/07/27 01:31:52;;;;;;;20.63;10.32;;;14.60;99.90;;;;;;5048996;28;20029;-58
2022/07/27 01:34:18;;;;;;;23.80;14.43;;;14.60;99.90;;;;;;5049381;28;20110;-59
2022/07/27 01:36:44;;;;;;;24.05;13.23;;;14.50;99.90;;;;;;5047783;28;20045;-58
2022/07/27 01:39:11;;;;;;;30.70;16.30;;;14.40;99.90;;;;;;5048586;28;20621;-58
2022/07/27 01:41:37;;;;;;;22.50;13.73;;;14.50;99.90;;;;;;5048912;28;20091;-58
2022/07/27 01:44:03;;;;;;;24.70;13.95;;;14.40;99.90;;;;;;5049243;28;20037;-58
2022/07/27 01:46:28;;;;;;;23.38;13.68;;;14.40;99.90;;;;;;5049631;28;20025;-59
2022/07/27 01:48:54;;;;;;;29.23;12.20;;;14.40;99.90;;;;;;5048957;28;20035;-59
2022/07/27 01:51:20;;;;;;;26.08;12.10;;;14.40;99.90;;;;;;5049611;28;20048;-59
2022/07/27 01:53:46;;;;;;;28.77;14.52;;;14.50;99.90;;;;;;5049556;28;20423;-59
2022/07/27 01:56:12;;;;;;;30.30;14.30;;;14.40;99.90;;;;;;5049141;28;20022;-60
2022/07/27 01:58:39;;;;;;;19.13;10.63;;;14.40;99.90;;;;;;5047596;28;20052;-59
2022/07/27 02:01:05;;;;;;;22.10;10.27;;;14.50;99.90;;;;;;5049499;28;20388;-59
2022/07/27 02:03:31;;;;;;;22.70;10.17;;;14.50;99.90;;;;;;5049127;28;20036;-59
2022/07/27 02:05:57;;;;;;;24.38;10.85;;;14.50;99.90;;;;;;5049762;28;20268;-59
2022/07/27 02:08:23;;;;;;;25.35;11.88;;;14.50;99.90;;;;;;5053369;28;20029;-59
2022/07/27 02:13:33;;;;;;;21.42;11.73;;;14.40;99.90;;;;;;5052517;28;20164;-59
2022/07/27 02:15:59;;;;;;;20.48;10.80;;;14.40;99.90;;;;;;5052351;28;20603;-58
2022/07/27 02:18:25;;;;;;;18.13;10.60;;;14.40;99.90;;;;;;5052834;28;20041;-59
2022/07/27 02:20:51;;;;;;;17.85;10.38;;;14.40;99.90;;;;;;5052999;28;20388;-58
2022/07/27 02:23:16;;;;;;;22.25;11.98;;;14.40;99.90;;;;;;5052754;28;20107;-59
2022/07/27 02:25:42;;;;;;;25.73;12.65;;;14.40;99.90;;;;;;5052835;28;20021;-59
2022/07/27 02:28:08;;;;;;;24.13;10.65;;;14.40;99.90;;;;;;5052548;28;20535;-58
2022/07/27 02:30:34;;;;;;;24.80;12.00;;;14.50;99.90;;;;;;5051779;28;20142;-59
2022/07/27 02:33:00;;;;;;;18.25;11.52;;;14.40;99.90;;;;;;5051322;28;20032;-59
2022/07/27 02:35:26;;;;;;;19.77;10.32;;;14.40;99.90;;;;;;5032854;28;20025;-58
2022/07/27 02:37:52;;;;;;;18.25;10.35;;;14.40;99.90;;;;;;5052216;28;20028;-58
2022/07/27 02:40:18;;;;;;;18.52;10.25;;;14.30;99.90;;;;;;5051193;28;20021;-60
2022/07/27 02:42:45;;;;;;;19.25;11.68;;;14.40;99.90;;;;;;5052699;28;20563;-59
2022/07/27 02:45:11;;;;;;;23.52;12.25;;;14.50;99.90;;;;;;5052521;28;20033;-59
2022/07/27 02:47:38;;;;;;;17.73;10.70;;;14.40;99.90;;;;;;5052573;28;20025;-59
2022/07/27 02:50:05;;;;;;;23.73;11.43;;;14.30;99.90;;;;;;5052141;28;20067;-59
2022/07/27 02:52:32;;;;;;;26.65;13.43;;;14.30;99.90;;;;;;5034546;28;20021;-58
2022/07/27 02:54:58;;;;;;;24.25;11.63;;;14.20;99.90;;;;;;5052450;28;20029;-58
2022/07/27 02:57:23;;;;;;;23.08;12.00;;;14.30;99.90;;;;;;5052210;28;20074;-58
2022/07/27 02:59:49;;;;;;;18.92;10.30;;;14.30;99.90;;;;;;5051761;28;20064;-59
2022/07/27 03:02:15;;;;;;;21.15;12.52;;;14.30;99.90;;;;;;5052141;28;20056;-58
2022/07/27 03:04:40;;;;;;;24.35;12.50;;;14.30;99.90;;;;;;5052289;28;20063;-59
2022/07/27 03:07:07;;;;;;;21.63;10.90;;;14.30;99.90;;;;;;5051922;28;20075;-59
2022/07/27 03:09:33;;;;;;;21.48;10.98;;;14.30;99.90;;;;;;5052029;28;20059;-58
2022/07/27 03:12:00;;;;;;;19.17;10.50;;;14.30;99.90;;;;;;5051904;28;20037;-58
2022/07/27 03:14:26;;;;;;;20.52;11.55;;;14.30;99.90;;;;;;5051973;28;20033;-59
2022/07/27 03:16:51;;;;;;;18.15;11.65;;;14.30;99.90;;;;;;5051649;28;20028;-59
2022/07/27 03:19:17;;;;;;;17.83;10.80;;;14.20;99.90;;;;;;5051618;28;20537;-59
2022/07/27 03:21:43;;;;;;;18.00;11.15;;;14.20;99.90;;;;;;5051654;28;20122;-58
2022/07/27 03:24:08;;;;;;;32.58;12.77;;;14.30;99.90;;;;;;5051916;28;20033;-59
2022/07/27 03:26:35;;;;;;;17.55;10.80;;;14.30;99.90;;;;;;5051693;28;20029;-59
2022/07/27 03:29:01;;;;;;;21.65;12.68;;;14.20;99.90;;;;;;5051525;28;20025;-59
2022/07/27 03:31:26;;;;;;;23.42;11.60;;;14.20;99.90;;;;;;5051790;28;20108;-58
2022/07/27 03:33:52;;;;;;;23.13;11.68;;;14.20;99.90;;;;;;5051718;28;20064;-59
2022/07/27 03:36:18;;;;;;;22.00;11.48;;;14.30;99.90;;;;;;5051477;28;20044;-59
2022/07/27 03:38:43;;;;;;;25.63;12.77;;;14.00;99.90;;;;;;5051310;28;20876;-59
2022/07/27 03:41:09;;;;;;;36.28;13.95;;;14.20;99.90;;;;;;5051543;28;20112;-59
2022/07/27 03:43:35;;;;;;;23.30;13.00;;;14.20;99.90;;;;;;5051520;28;20048;-59
2022/07/27 03:46:00;;;;;;;20.08;12.70;;;14.30;99.90;;;;;;5051392;28;20024;-59
2022/07/27 03:48:26;;;;;;;67.90;16.67;;;14.30;99.90;;;;;;5051291;28;20457;-58
2022/07/27 03:50:53;;;;;;;29.80;14.85;;;14.30;99.90;;;;;;5051403;28;20039;-59
2022/07/27 03:53:20;;;;;;;43.08;19.83;;;14.20;99.90;;;;;;5051429;28;20387;-59
2022/07/27 03:55:47;;;;;;;68.70;17.42;;;14.20;99.90;;;;;;5051322;28;20120;-58
2022/07/27 03:58:13;;;;;;;;;;;14.20;99.90;;;;;;5051067;28;20464;-59
2022/07/27 04:00:39;;;;;;;70.97;18.17;;;14.20;99.90;;;;;;5051066;28;19909;-59
2022/07/27 04:03:05;;;;;;;107.35;17.17;;;14.30;99.90;;;;;;5051087;28;20056;-59
2022/07/27 04:05:30;;;;;;;26.10;14.95;;;14.30;99.90;;;;;;5033144;28;20024;-59
2022/07/27 04:07:56;;;;;;;41.38;15.45;;;14.30;99.90;;;;;;5050339;28;20021;-57
2022/07/27 04:10:23;;;;;;;51.72;15.30;;;14.30;99.90;;;;;;5050723;28;20036;-57
2022/07/27 04:12:49;;;;;;;40.15;14.93;;;14.20;99.90;;;;;;5050906;28;20055;-59
2022/07/27 04:15:17;;;;;;;38.90;14.95;;;14.20;99.90;;;;;;5050769;28;20045;-57
2022/07/27 04:17:44;;;;;;;31.98;15.48;;;14.30;99.90;;;;;;5050337;28;20025;-57
2022/07/27 04:20:10;;;;;;;33.22;15.30;;;14.20;99.90;;;;;;5050471;28;20029;-58
2022/07/27 04:22:36;;;;;;;21.48;15.45;;;14.30;99.90;;;;;;5016348;28;20036;-57
2022/07/27 04:25:02;;;;;;;31.13;14.80;;;14.20;99.90;;;;;;5050515;28;20025;-57
2022/07/27 04:27:27;;;;;;;22.98;14.40;;;14.20;99.90;;;;;;5050400;28;20021;-58
2022/07/27 04:29:53;;;;;;;31.20;15.20;;;14.20;99.90;;;;;;5049761;28;20495;-58
2022/07/27 04:32:19;;;;;;;25.65;17.33;;;14.30;99.90;;;;;;5050437;28;20028;-58
2022/07/27 04:34:45;;;;;;;23.50;16.30;;;14.40;99.90;;;;;;5050203;28;20242;-59
2022/07/27 04:37:10;;;;;;;23.00;17.42;;;14.40;99.90;;;;;;5050137;28;20036;-59
2022/07/27 04:39:36;;;;;;;22.75;17.50;;;14.30;99.90;;;;;;5032172;28;20047;-58
2022/07/27 04:42:02;;;;;;;22.25;17.48;;;14.50;99.90;;;;;;5050350;28;20031;-59
2022/07/27 04:44:27;;;;;;;27.15;18.30;;;14.50;99.90;;;;;;5050274;28;20111;-58
2022/07/27 04:46:53;;;;;;;31.33;19.67;;;14.50;99.90;;;;;;5050159;28;20052;-58
2022/07/27 04:49:19;;;;;;;31.63;19.13;;;14.60;99.90;;;;;;5050291;28;20076;-58
2022/07/27 04:51:44;;;;;;;25.58;18.65;;;14.70;99.90;;;;;;5049965;28;20048;-59
2022/07/27 04:54:11;;;;;;;28.15;21.10;;;14.80;99.90;;;;;;5050079;28;20033;-58
2022/07/27 04:56:36;;;;;;;30.02;20.90;;;14.90;99.90;;;;;;5050224;28;20541;-59
2022/07/27 04:59:03;;;;;;;30.08;21.48;;;14.90;99.90;;;;;;5049377;28;20080;-58
2022/07/27 05:01:28;;;;;;;31.95;21.38;;;14.90;99.90;;;;;;5049961;28;20036;-59
2022/07/27 05:03:54;;;;;;;29.63;23.17;;;15.00;99.90;;;;;;5049735;28;20036;-59
2022/07/27 05:06:20;;;;;;;32.88;23.83;;;15.10;99.90;;;;;;5049941;28;20036;-58
2022/07/27 05:08:45;;;;;;;28.02;22.33;;;15.20;99.90;;;;;;5049469;28;20044;-58
2022/07/27 05:11:11;;;;;;;31.23;22.02;;;15.30;99.90;;;;;;5049996;28;20032;-58
2022/07/27 05:13:39;;;;;;;30.08;22.17;;;15.40;99.90;;;;;;5049871;28;20530;-59
2022/07/27 05:16:09;;;;;;;27.48;19.25;;;15.40;99.90;;;;;;5049641;28;20451;-59
2022/07/27 05:18:36;;;;;;;23.83;19.60;;;15.50;99.90;;;;;;5049319;28;20108;-59
2022/07/27 05:21:02;;;;;;;27.55;19.23;;;15.70;99.90;;;;;;5049915;28;20400;-58
2022/07/27 05:23:27;;;;;;;25.08;18.52;;;15.70;99.90;;;;;;5049696;28;20464;-58
2022/07/27 05:25:53;;;;;;;22.98;18.40;;;15.70;99.90;;;;;;5049866;28;20036;-58
2022/07/27 05:28:19;;;;;;;24.60;18.48;;;15.80;99.90;;;;;;5049526;28;20029;-58
2022/07/27 05:30:45;;;;;;;27.52;18.75;;;15.90;99.90;;;;;;5049760;28;20102;-58
2022/07/27 05:33:10;;;;;;;23.20;18.55;;;15.90;99.90;;;;;;5049509;28;20420;-58
2022/07/27 05:35:36;;;;;;;23.88;17.65;;;16.00;99.90;;;;;;5049463;28;20055;-58
2022/07/27 05:38:02;;;;;;;23.10;17.67;;;16.00;99.90;;;;;;5049062;28;20103;-58
2022/07/27 05:40:28;;;;;;;27.13;18.45;;;16.00;99.90;;;;;;5034630;28;20059;-57
2022/07/27 05:42:54;;;;;;;26.23;18.23;;;16.10;99.90;;;;;;5056140;28;20029;-59
2022/07/27 05:45:20;;;;;;;27.42;17.88;;;16.10;99.90;;;;;;5056194;28;20074;-58
2022/07/27 05:47:46;;;;;;;20.83;16.88;;;16.10;99.90;;;;;;5056049;28;20548;-58
2022/07/27 05:50:11;;;;;;;18.67;15.75;;;16.20;99.90;;;;;;5055927;28;20025;-59
2022/07/27 05:52:37;;;;;;;20.08;15.07;;;16.30;99.90;;;;;;5055990;28;20040;-58
2022/07/27 05:55:04;;;;;;;25.98;17.67;;;16.40;99.90;;;;;;5056117;28;20468;-58
2022/07/27 05:57:30;;;;;;;20.80;15.50;;;16.40;99.90;;;;;;5055901;28;20644;-59
2022/07/27 05:59:57;;;;;;;21.73;16.27;;;16.50;99.90;;;;;;5037534;28;20059;-59
2022/07/27 06:02:24;;;;;;;20.95;15.73;;;16.50;99.90;;;;;;5056047;28;20040;-58
2022/07/27 06:04:49;;;;;;;21.60;15.70;;;16.50;99.90;;;;;;5056117;28;20079;-57
2022/07/27 06:09:59;;;;;;;26.63;18.52;;;16.60;99.90;;;;;;5055535;28;20036;-58
2022/07/27 06:12:26;;;;;;;23.85;18.52;;;16.60;99.90;;;;;;5056061;28;20048;-58
2022/07/27 06:14:51;;;;;;;27.13;18.33;;;16.60;99.90;;;;;;5056022;28;20380;-57
2022/07/27 06:17:17;;;;;;;25.52;18.98;;;16.60;99.90;;;;;;5055899;28;20029;-58
2022/07/27 06:19:43;;;;;;;25.75;17.55;;;16.60;99.90;;;;;;5055364;28;20529;-58
2022/07/27 06:22:08;;;;;;;29.23;18.55;;;16.60;99.90;;;;;;5055844;28;20139;-58
2022/07/27 06:24:34;;;;;;;22.65;16.92;;;16.80;99.90;;;;;;5055859;28;20021;-58
2022/07/27 06:27:00;;;;;;;24.15;17.45;;;16.80;99.90;;;;;;5037843;28;20031;-58
2022/07/27 06:29:26;;;;;;;24.73;19.13;;;16.80;99.90;;;;;;5055073;28;20391;-58
2022/07/27 06:31:52;;;;;;;26.35;20.00;;;16.90;99.90;;;;;;5054761;28;20049;-58
2022/07/27 06:34:17;;;;;;;24.77;19.25;;;16.90;99.90;;;;;;5054920;28;20029;-58
2022/07/27 06:36:44;;;;;;;25.38;19.38;;;17.00;99.90;;;;;;5055241;28;20464;-58
2022/07/27 06:39:10;;;;;;;25.60;20.58;;;17.00;99.90;;;;;;5054826;28;20061;-58
2022/07/27 06:41:36;;;;;;;24.90;21.08;;;17.00;99.90;;;;;;5054986;28;20029;-58
2022/07/27 06:44:02;;;;;;;24.92;20.48;;;17.10;99.90;;;;;;5055292;28;20037;-58
2022/07/27 06:46:27;;;;;;;30.20;22.63;;;17.10;99.90;;;;;;5055193;28;20027;-57
2022/07/27 06:48:55;;;;;;;30.50;22.77;;;17.10;99.90;;;;;;5036804;28;20025;-58
2022/07/27 06:51:22;;;;;;;28.13;22.80;;;17.10;99.90;;;;;;5053808;28;20033;-58
2022/07/27 06:53:51;;;;;;;29.50;24.48;;;17.10;99.90;;;;;;5051797;28;20112;-57
2022/07/27 06:56:18;;;;;;;29.17;23.45;;;17.10;99.90;;;;;;5052090;28;20060;-58
2022/07/27 06:58:43;;;;;;;32.28;24.30;;;17.20;99.90;;;;;;5033959;28;20044;-57
2022/07/27 07:01:09;;;;;;;33.25;25.33;;;17.20;99.90;;;;;;5051270;28;20028;-57
2022/07/27 07:03:35;;;;;;;30.17;25.67;;;17.10;99.90;;;;;;5051722;28;20041;-57
2022/07/27 07:06:01;;;;;;;35.08;28.10;;;17.10;99.90;;;;;;5051590;28;20103;-57
2022/07/27 07:08:27;;;;;;;37.15;27.90;;;17.10;99.90;;;;;;5051423;28;20120;-57
2022/07/27 07:10:52;;;;;;;30.25;25.83;;;17.10;99.90;;;;;;5051423;28;20029;-57
2022/07/27 07:13:18;;;;;;;31.92;25.13;;;17.20;99.90;;;;;;5051727;28;20021;-57
2022/07/27 07:15:44;;;;;;;34.42;25.00;;;17.30;99.90;;;;;;5051458;28;20024;-58
2022/07/27 07:18:11;;;;;;;32.20;26.55;;;17.30;99.90;;;;;;5051108;28;20033;-58
2022/07/27 07:20:37;;;;;;;34.90;27.65;;;17.40;99.90;;;;;;5050594;28;20029;-58
2022/07/27 07:23:04;;;;;;;32.83;27.67;;;17.40;99.90;;;;;;5035402;28;20025;-58
2022/07/27 07:25:31;;;;;;;31.52;27.23;;;17.40;99.90;;;;;;5051044;28;20040;-57
2022/07/27 07:27:57;;;;;;;36.72;29.85;;;17.30;99.90;;;;;;5051085;28;20025;-58
2022/07/27 07:30:23;;;;;;;33.40;29.58;;;17.30;99.90;;;;;;5050561;28;20032;-58
2022/07/27 07:32:48;;;;;;;33.25;29.58;;;17.40;99.90;;;;;;5050733;28;20033;-58
2022/07/27 07:35:14;;;;;;;38.50;32.22;;;17.30;99.90;;;;;;5050444;28;20017;-57
2022/07/27 07:37:40;;;;;;;37.03;31.05;;;17.40;99.90;;;;;;5050470;28;20055;-58
2022/07/27 07:40:07;;;;;;;37.25;30.30;;;17.40;99.90;;;;;;5049911;28;20408;-58
2022/07/27 07:42:51;;;;;;;35.50;29.33;;;17.50;99.90;;;;;;5050391;28;20025;-59
2022/07/27 07:45:17;;;;;;;37.30;31.30;;;17.50;99.90;;;;;;5049377;28;20025;-58
2022/07/27 07:47:43;;;;;;;42.15;30.48;;;17.50;99.90;;;;;;5050280;28;20119;-58
2022/07/27 07:50:09;;;;;;;34.05;27.88;;;17.50;99.90;;;;;;5049931;28;20128;-59
2022/07/27 07:52:36;;;;;;;40.13;29.17;;;17.60;99.90;;;;;;5050151;28;20043;-57
2022/07/27 07:55:02;;;;;;;33.15;29.10;;;17.80;99.90;;;;;;5040835;28;20025;-58
2022/07/27 07:57:27;;;;;;;35.63;29.98;;;17.90;99.90;;;;;;5047455;28;20021;-58
2022/07/27 07:59:53;;;;;;;36.40;31.52;;;18.00;99.90;;;;;;5049625;28;20557;-58
2022/07/27 08:02:20;;;;;;;38.65;31.75;;;18.00;99.90;;;;;;5049811;28;20047;-57
2022/07/27 08:04:46;;;;;;;37.95;30.85;;;18.10;99.90;;;;;;5048886;28;20086;-58
2022/07/27 08:07:12;;;;;;;37.05;30.42;;;18.00;99.90;;;;;;5050537;28;20028;-57
2022/07/27 08:09:38;;;;;;;35.25;30.77;;;18.20;99.90;;;;;;5039585;28;20031;-57
2022/07/27 08:12:05;;;;;;;34.05;29.08;;;18.20;99.90;;;;;;5050256;28;20481;-58
2022/07/27 08:14:31;;;;;;;34.05;29.48;;;18.20;99.90;;;;;;5049774;28;20025;-58
2022/07/27 08:16:57;;;;;;;182.80;141.15;;;18.30;99.90;;;;;;5050718;28;20035;-59
2022/07/27 08:19:23;;;;;;;42.90;32.35;;;18.40;99.90;;;;;;5050046;28;20128;-58
2022/07/27 08:21:48;;;;;;;38.25;31.52;;;18.40;99.90;;;;;;5049770;28;20024;-59
2022/07/27 08:24:14;;;;;;;34.92;28.40;;;18.50;99.90;;;;;;5049556;28;20024;-58
2022/07/27 08:26:40;;;;;;;36.42;27.60;;;18.60;99.90;;;;;;5039685;28;20536;-58
2022/07/27 08:29:06;;;;;;;34.67;28.55;;;18.70;99.90;;;;;;5049330;28;20503;-58
2022/07/27 08:31:32;;;;;;;31.48;26.83;;;18.80;99.90;;;;;;5049097;28;20404;-58
2022/07/27 08:33:58;;;;;;;37.75;28.35;;;18.90;99.90;;;;;;5049268;28;20017;-59
2022/07/27 08:36:24;;;;;;;37.22;28.10;;;18.80;99.90;;;;;;5049780;28;20033;-58
2022/07/27 08:38:49;;;;;;;34.75;28.83;;;18.90;99.90;;;;;;5039993;28;20488;-58
2022/07/27 08:41:18;;;;;;;30.95;26.33;;;18.90;99.90;;;;;;5049921;28;20041;-58
2022/07/27 08:43:47;;;;;;;33.17;28.63;;;18.90;99.90;;;;;;5050294;28;20025;-58
2022/07/27 08:46:17;;;;;;;32.83;28.60;;;18.90;99.90;;;;;;5050049;28;20028;-57
2022/07/27 08:48:43;;;;;;;31.88;28.42;;;18.80;99.90;;;;;;5050246;28;20032;-58
2022/07/27 08:51:10;;;;;;;32.97;26.35;;;18.70;99.90;;;;;;5049952;28;20021;-57
2022/07/27 08:53:36;;;;;;;;;;;18.80;99.90;;;;;;5047006;28;20033;-57
2022/07/27 08:56:02;;;;;;;39.92;26.45;;;18.90;99.90;;;;;;5050200;28;19909;-56
2022/07/27 08:58:28;;;;;;;32.50;26.50;;;18.90;99.90;;;;;;5049209;28;20136;-58
2022/07/27 09:00:55;;;;;;;32.72;28.05;;;19.00;99.90;;;;;;5049422;28;20091;-57
2022/07/27 09:03:21;;;;;;;34.60;28.10;;;19.10;99.90;;;;;;5049805;28;20036;-57
2022/07/27 09:05:51;;;;;;;62.50;40.55;;;19.10;99.90;;;;;;5049421;28;20108;-57
2022/07/27 09:08:23;;;;;;;34.25;25.67;;;19.10;99.90;;;;;;5049385;28;20035;-58
2022/07/27 09:10:49;;;;;;;28.17;25.15;;;19.20;99.90;;;;;;5049196;28;20029;-57
2022/07/27 09:13:33;;;;;;;29.67;25.38;;;19.20;99.90;;;;;;5048487;28;20029;-59
2022/07/27 09:16:00;;;;;;;29.55;25.73;;;19.30;99.90;;;;;;5048304;28;20024;-57
2022/07/27 09:18:28;;;;;;;29.20;26.02;;;19.30;99.90;;;;;;5048665;28;20108;-57
2022/07/27 09:21:13;;;;;;;33.20;27.00;;;19.40;99.90;;;;;;5048461;28;20069;-57
2022/07/27 09:23:40;;;;;;;32.28;24.83;;;19.50;99.90;;;;;;5046007;28;20438;-58
2022/07/27 09:26:16;;;;;;;;;;;19.60;99.90;;;;;;5048975;28;20400;-57
2022/07/27 09:28:42;;;;;;;29.67;24.45;;;19.80;99.90;;;;;;5046114;28;19924;-58
2022/07/27 09:31:14;;;;;;;30.60;23.80;;;20.00;99.90;;;;;;5048055;28;20070;-58
2022/07/27 09:33:44;;;;;;;26.45;21.73;;;20.10;99.90;;;;;;5046642;28;20743;-59
2022/07/27 09:36:10;;;;;;;27.83;22.95;;;20.30;99.90;;;;;;5048726;28;20017;-57
2022/07/27 09:38:36;;;;;;;26.48;23.02;;;20.40;99.90;;;;;;5048314;28;20045;-59
2022/07/27 09:41:04;;;;;;;31.23;24.13;;;20.40;99.90;;;;;;5048844;28;20021;-59
2022/07/27 09:43:32;;;;;;;29.33;23.13;;;20.30;99.90;;;;;;5049120;28;20483;-59
2022/07/27 09:46:08;;;;;;;22.55;20.25;;;20.40;99.90;;;;;;5049059;28;20051;-61
2022/07/27 09:48:34;;;;;;;21.25;18.92;;;20.60;99.90;;;;;;5047272;28;20017;-59
2022/07/27 09:51:04;;;;;;;20.67;15.15;;;20.60;99.90;;;;;;5048897;28;20024;-60
2022/07/27 09:53:33;;;;;;;19.80;17.52;;;20.80;99.90;;;;;;5038962;28;20102;-60
2022/07/27 09:56:09;;;;;;;16.77;12.55;;;20.90;99.90;;;;;;5048844;28;20041;-60
2022/07/27 09:58:50;;;;;;;16.45;12.77;;;21.00;99.90;;;;;;5047107;28;20518;-59
2022/07/27 10:01:20;;;;;;;18.30;14.95;;;21.20;99.90;;;;;;5047740;28;20421;-59
2022/07/27 10:03:47;;;;;;;16.15;13.77;;;21.50;99.90;;;;;;5049256;28;20118;-59
2022/07/27 10:06:14;;;;;;;18.98;14.73;;;21.70;99.90;;;;;;5049036;28;20101;-60
2022/07/27 10:08:43;;;;;;;18.55;14.13;;;21.70;99.90;;;;;;5048828;28;20017;-59
2022/07/27 10:11:10;;;;;;;16.58;12.25;;;21.70;99.90;;;;;;5046544;28;20456;-60
2022/07/27 10:13:37;;;;;;;15.70;13.68;;;21.90;99.90;;;;;;5049466;28;20056;-60
2022/07/27 10:16:05;;;;;;;17.60;11.90;;;22.20;99.90;;;;;;5049175;28;20069;-60
2022/07/27 10:18:36;;;;;;;13.90;9.85;;;22.50;99.90;;;;;;5031067;28;20567;-60
2022/07/27 10:21:10;;;;;;;15.32;11.18;;;22.80;99.90;;;;;;5049407;28;20033;-60
2022/07/27 10:23:39;;;;;;;15.63;11.00;;;22.90;99.90;;;;;;5049234;28;20661;-60
2022/07/27 10:26:35;;;;;;;14.73;9.45;;;23.10;99.90;;;;;;5048906;28;20111;-59
2022/07/27 10:29:04;;;;;;;11.93;10.00;;;23.10;99.90;;;;;;5051063;28;20056;-59
2022/07/27 10:31:36;;;;;;;12.18;9.55;;;23.00;99.90;;;;;;5052934;28;20021;-60
2022/07/27 10:34:05;;;;;;;17.17;11.27;;;23.00;99.90;;;;;;5052356;28;20029;-60
2022/07/27 10:36:30;;;;;;;15.80;11.82;;;23.00;99.90;;;;;;5052321;28;20029;-59
2022/07/27 10:38:58;;;;;;;21.20;15.68;;;23.10;99.90;;;;;;5051624;28;20036;-58
2022/07/27 10:41:27;;;;;;;13.98;9.65;;;23.00;99.90;;;;;;5037640;28;20040;-58
2022/07/27 10:44:21;;;;;;;10.40;7.47;;;22.70;99.90;;;;;;5052397;28;20056;-57
2022/07/27 10:46:58;;;;;;;10.27;7.80;;;22.60;99.90;;;;;;5052767;28;20032;-57
2022/07/27 10:49:30;;;;;;;12.82;7.93;;;22.90;99.90;;;;;;5052292;28;20022;-58
2022/07/27 10:51:57;;;;;;;13.35;9.55;;;23.50;99.90;;;;;;5052858;28;20120;-59
2022/07/27 10:54:26;;;;;;;13.25;9.18;;;23.40;99.90;;;;;;5067495;28;20076;-58
2022/07/27 10:56:54;;;;;;;13.73;9.70;;;23.60;99.90;;;;;;5051499;28;20461;-59
2022/07/27 10:59:38;;;;;;;14.50;9.27;;;23.70;99.90;;;;;;5052020;28;20061;-59
2022/07/27 11:02:12;;;;;;;14.50;8.68;;;23.90;99.90;;;;;;5052692;28;20033;-59
2022/07/27 11:04:47;;;;;;;14.02;8.13;;;24.10;99.90;;;;;;5052095;28;20029;-59
2022/07/27 11:07:19;;;;;;;12.05;7.43;;;24.20;99.90;;;;;;5051648;28;20439;-59
2022/07/27 11:09:47;;;;;;;12.50;8.52;;;24.30;99.90;;;;;;5049060;28;20029;-57
2022/07/27 11:12:14;;;;;;;14.75;9.05;;;24.00;99.90;;;;;;5051654;28;20052;-58
2022/07/27 11:14:50;;;;;;;11.77;8.20;;;23.80;99.90;;;;;;5039292;28;20025;-58
2022/07/27 11:17:20;;;;;;;12.35;8.43;;;23.90;99.90;;;;;;5052155;28;20484;-58
2022/07/27 11:20:06;;;;;;;12.68;8.90;;;24.00;99.90;;;;;;5066499;28;20052;-57
2022/07/27 11:22:34;;;;;;;11.05;8.30;;;24.10;99.90;;;;;;5051668;28;20041;-57
2022/07/27 11:25:03;;;;;;;11.73;8.60;;;24.40;99.90;;;;;;5051517;28;20033;-57
2022/07/27 11:27:29;;;;;;;13.43;9.55;;;24.10;99.90;;;;;;5051451;28;20045;-57
2022/07/27 11:29:56;;;;;;;9.52;7.80;;;24.00;99.90;;;;;;5048872;28;20021;-57
2022/07/27 11:32:22;;;;;;;14.10;8.77;;;24.00;99.90;;;;;;5051455;28;20041;-57
2022/07/27 11:34:48;;;;;;;10.68;8.10;;;24.10;99.90;;;;;;5051532;28;20104;-57
2022/07/27 11:37:21;;;;;;;10.10;7.88;;;24.30;99.90;;;;;;5051094;28;20063;-57
2022/07/27 11:39:47;;;;;;;11.60;8.45;;;24.40;99.90;;;;;;5051371;28;20037;-57
2022/07/27 11:42:17;;;;;;;18.20;9.75;;;24.50;99.90;;;;;;5049999;28;20020;-57
2022/07/27 11:44:44;;;;;;;13.98;9.60;;;24.50;99.90;;;;;;5049788;28;20096;-57
2022/07/27 11:47:16;;;;;;;12.15;8.73;;;24.50;99.90;;;;;;5051429;28;20051;-57
2022/07/27 11:49:41;;;;;;;12.45;10.13;;;24.30;99.90;;;;;;5051175;28;20032;-57
2022/07/27 11:52:08;;;;;;;16.60;9.85;;;24.10;99.90;;;;;;5051494;28;20029;-58
2022/07/27 11:54:37;;;;;;;16.27;10.00;;;24.30;99.90;;;;;;5051407;28;20033;-58
2022/07/27 11:57:06;;;;;;;11.35;9.20;;;24.70;99.90;;;;;;5051135;28;20469;-57
2022/07/27 11:59:34;;;;;;;14.68;10.32;;;24.90;99.90;;;;;;5033253;28;20057;-58
2022/07/27 12:01:59;;;;;;;16.33;11.55;;;25.20;99.90;;;;;;5051360;28;20487;-58
2022/07/27 12:04:27;;;;;;;19.42;12.85;;;25.20;97.40;;;;;;5051332;28;20278;-58
2022/07/27 12:07:02;;;;;;;18.95;12.23;;;25.40;98.00;;;;;;5051179;28;20471;-58
2022/07/27 12:09:29;;;;;;;19.42;11.98;;;25.40;99.90;;;;;;5051082;28;20025;-58
2022/07/27 12:12:10;;;;;;;19.40;11.88;;;25.50;99.20;;;;;;5051143;28;20067;-58
2022/07/27 12:14:39;;;;;;;22.88;13.20;;;25.70;99.90;;;;;;5051039;28;20510;-58
2022/07/27 12:17:29;;;;;;;15.50;10.55;;;25.70;93.70;;;;;;5050958;28;20036;-58
2022/07/27 12:20:08;;;;;;;17.42;11.73;;;25.90;94.80;;;;;;5040465;28;20041;-58
2022/07/27 12:22:37;;;;;;;17.35;11.93;;;25.70;95.20;;;;;;5051018;28;20049;-58
2022/07/27 12:25:08;;;;;;;15.02;9.40;;;25.90;95.40;;;;;;5050677;28;20538;-60
2022/07/27 12:27:34;;;;;;;17.08;11.40;;;26.30;93.00;;;;;;5032762;28;20021;-58
2022/07/27 12:30:11;;;;;;;15.23;9.90;;;25.90;91.40;;;;;;5050608;28;20104;-58
2022/07/27 12:32:40;;;;;;;13.52;10.40;;;25.80;93.10;;;;;;5050588;28;20264;-58
2022/07/27 12:35:19;;;;;;;16.95;10.95;;;25.70;96.10;;;;;;5050513;28;20036;-58
2022/07/27 12:37:45;;;;;;;18.40;10.98;;;25.80;94.30;;;;;;5032879;28;20067;-58
2022/07/27 12:40:17;;;;;;;18.85;11.45;;;26.00;93.90;;;;;;5050550;28;20064;-58